createdAt,value
2018-06-04T00:00:14.754Z,23.15
2018-06-04T00:02:43.679Z,22.90
2018-06-04T00:05:12.654Z,22.91
2018-06-04T00:07:41.600Z,23.01
2018-06-04T00:10:10.582Z,22.80
2018-06-04T00:12:39.536Z,23.09
2018-06-04T00:15:08.482Z,22.90
2018-06-04T00:17:37.411Z,22.94
2018-06-04T00:20:06.492Z,22.96
2018-06-04T00:22:35.422Z,22.88
2018-06-04T00:25:04.411Z,22.63
2018-06-04T00:27:33.362Z,22.76
2018-06-04T00:30:02.262Z,22.75
2018-06-04T00:32:31.216Z,22.70
2018-06-04T00:35:00.153Z,22.90
2018-06-04T00:37:29.130Z,22.87
2018-06-04T00:39:58.072Z,22.68
2018-06-04T00:42:27.030Z,22.67
2018-06-04T00:44:55.951Z,22.73
2018-06-04T00:47:24.927Z,22.74
2018-06-04T00:49:54.005Z,22.58
2018-06-04T00:52:22.954Z,22.63
2018-06-04T00:54:51.855Z,22.57
2018-06-04T00:57:20.821Z,22.60
2018-06-04T00:59:50.603Z,22.47
2018-06-04T01:02:19.558Z,22.44
2018-06-04T01:04:48.465Z,22.47
2018-06-04T01:07:17.402Z,22.49
2018-06-04T01:09:46.315Z,22.49
2018-06-04T01:12:15.270Z,22.19
2018-06-04T01:14:44.195Z,22.27
2018-06-04T01:17:13.150Z,22.09
2018-06-04T01:19:42.087Z,22.12
2018-06-04T01:22:11.110Z,22.11
2018-06-04T01:24:39.993Z,22.36
2018-06-04T01:27:08.922Z,22.31
2018-06-04T01:29:37.854Z,22.33
2018-06-04T01:32:06.819Z,22.30
2018-06-04T01:34:35.767Z,22.33
2018-06-04T01:37:04.772Z,22.18
2018-06-04T01:39:33.703Z,22.29
2018-06-04T01:42:02.680Z,22.29
2018-06-04T01:44:31.628Z,22.11
2018-06-04T01:47:00.604Z,22.21
2018-06-04T01:49:29.539Z,21.93
2018-06-04T01:51:58.531Z,22.03
2018-06-04T01:54:27.660Z,21.95
2018-06-04T01:56:56.639Z,22.08
2018-06-04T01:59:25.587Z,21.90
2018-06-04T02:01:54.681Z,21.96
2018-06-04T02:04:23.643Z,22.03
2018-06-04T02:06:52.625Z,22.24
2018-06-04T02:09:21.555Z,22.03
2018-06-04T02:11:50.569Z,22.15
2018-06-04T02:14:19.524Z,22.24
2018-06-04T02:16:48.514Z,22.14
2018-06-04T02:19:17.454Z,22.10
2018-06-04T02:21:46.446Z,22.15
2018-06-04T02:24:15.384Z,22.22
2018-06-04T02:26:44.346Z,22.17
2018-06-04T02:29:13.359Z,22.19
2018-06-04T02:31:42.385Z,22.15
2018-06-04T02:34:11.356Z,22.10
2018-06-04T02:36:40.343Z,22.06
2018-06-04T02:39:09.291Z,21.97
2018-06-04T02:41:38.292Z,21.77
2018-06-04T02:44:07.244Z,21.92
2018-06-04T02:46:36.235Z,22.07
2018-06-04T02:49:05.205Z,22.05
2018-06-04T02:51:34.235Z,21.89
2018-06-04T02:54:03.173Z,22.00
2018-06-04T02:56:32.219Z,21.73
2018-06-04T02:59:01.163Z,21.69
2018-06-04T03:01:30.143Z,21.57
2018-06-04T03:03:59.123Z,21.30
2018-06-04T03:06:28.172Z,21.50
2018-06-04T03:08:57.140Z,21.42
2018-06-04T03:11:26.140Z,21.35
2018-06-04T03:13:55.091Z,21.34
2018-06-04T03:16:24.110Z,21.45
2018-06-04T03:18:53.042Z,21.22
2018-06-04T03:21:22.031Z,21.07
2018-06-04T03:23:50.992Z,21.12
2018-06-04T03:26:19.954Z,21.25
2018-06-04T03:28:48.978Z,21.34
2018-06-04T03:31:17.923Z,21.10
2018-06-04T03:33:47.064Z,21.34
2018-06-04T03:36:15.994Z,21.18
2018-06-04T03:38:44.984Z,21.06
2018-06-04T03:41:13.913Z,20.86
2018-06-04T03:43:42.900Z,21.07
2018-06-04T03:46:11.938Z,21.16
2018-06-04T03:48:40.887Z,21.15
2018-06-04T03:51:09.850Z,21.32
2018-06-04T03:53:38.859Z,21.31
2018-06-04T03:56:07.826Z,21.03
2018-06-04T03:58:36.790Z,21.14
2018-06-04T04:01:05.779Z,21.00
2018-06-04T04:03:34.770Z,21.21
2018-06-04T04:06:03.714Z,21.28
2018-06-04T04:08:32.773Z,21.48
2018-06-04T04:11:01.718Z,21.48
2018-06-04T04:13:30.685Z,21.58
2018-06-04T04:15:59.634Z,21.61
2018-06-04T04:18:28.611Z,22.06
2018-06-04T04:20:57.585Z,21.88
2018-06-04T04:23:26.558Z,21.82
2018-06-04T04:25:55.495Z,21.76
2018-06-04T04:28:24.535Z,21.73
2018-06-04T04:30:53.583Z,21.58
2018-06-04T04:33:22.558Z,21.67
2018-06-04T04:35:51.502Z,21.92
2018-06-04T04:38:20.520Z,22.36
2018-06-04T04:40:49.466Z,22.54
2018-06-04T04:43:18.478Z,22.56
2018-06-04T04:45:47.438Z,22.82
2018-06-04T04:48:16.421Z,22.87
2018-06-04T04:50:45.362Z,23.10
2018-06-04T04:53:14.374Z,23.38
2018-06-04T04:55:43.324Z,23.39
2018-06-04T04:58:12.398Z,23.76
2018-06-04T05:00:41.371Z,24.03
2018-06-04T05:03:10.441Z,24.22
2018-06-04T05:05:39.427Z,24.02
2018-06-04T05:08:08.424Z,24.12
2018-06-04T05:10:37.431Z,23.44
2018-06-04T05:13:06.433Z,23.61
2018-06-04T05:15:35.384Z,23.52
2018-06-04T05:18:04.377Z,23.99
2018-06-04T05:20:33.329Z,24.27
2018-06-04T05:23:02.323Z,23.74
2018-06-04T05:25:31.262Z,24.14
2018-06-04T05:28:00.263Z,23.82
2018-06-04T05:30:29.245Z,24.36
2018-06-04T05:32:58.244Z,24.52
2018-06-04T05:35:27.206Z,24.71
2018-06-04T05:37:56.224Z,24.87
2018-06-04T05:40:25.176Z,25.05
2018-06-04T05:42:54.173Z,25.42
2018-06-04T05:45:23.124Z,25.80
2018-06-04T05:47:52.278Z,25.23
2018-06-04T05:50:21.254Z,25.09
2018-06-04T05:52:50.275Z,25.31
2018-06-04T05:55:19.225Z,25.46
2018-06-04T05:57:48.232Z,25.78
2018-06-04T06:00:17.202Z,26.06
2018-06-04T06:02:46.335Z,26.17
2018-06-04T06:05:15.274Z,26.30
2018-06-04T06:07:44.289Z,25.91
2018-06-04T06:10:13.275Z,26.24
2018-06-04T06:12:42.235Z,26.31
2018-06-04T06:15:11.241Z,26.56
2018-06-04T06:17:40.383Z,26.89
2018-06-04T06:20:09.391Z,26.54
2018-06-04T06:22:38.385Z,26.13
2018-06-04T06:25:07.420Z,26.48
2018-06-04T06:27:37.058Z,26.61
2018-06-04T06:30:06.136Z,26.17
2018-06-04T06:32:35.087Z,26.98
2018-06-04T06:35:04.061Z,26.85
2018-06-04T06:37:33.086Z,26.80
2018-06-04T06:40:02.059Z,26.71
2018-06-04T06:42:31.025Z,27.06
2018-06-04T06:45:00.015Z,27.66
2018-06-04T06:47:28.919Z,27.94
2018-06-04T06:49:57.986Z,27.69
2018-06-04T06:52:26.949Z,28.22
2018-06-04T06:54:56.487Z,27.48
2018-06-04T06:57:25.430Z,27.64
2018-06-04T06:59:54.622Z,28.54
2018-06-04T07:02:23.557Z,28.72
2018-06-04T07:04:52.606Z,28.36
2018-06-04T07:07:21.555Z,28.88
2018-06-04T07:09:50.525Z,28.72
2018-06-04T07:12:19.488Z,28.59
2018-06-04T07:14:48.480Z,29.14
2018-06-04T07:17:17.440Z,28.84
2018-06-04T07:19:46.413Z,28.43
2018-06-04T07:22:15.358Z,28.88
2018-06-04T07:24:44.314Z,28.89
2018-06-04T07:27:13.256Z,28.74
2018-06-04T07:29:42.307Z,29.06
2018-06-04T07:32:11.335Z,28.37
2018-06-04T07:34:40.324Z,28.70
2018-06-04T07:37:09.268Z,28.43
2018-06-04T07:39:38.277Z,28.43
2018-06-04T07:42:07.245Z,28.81
2018-06-04T07:44:36.277Z,29.34
2018-06-04T07:47:05.217Z,28.32
2018-06-04T07:49:34.241Z,27.98
2018-06-04T07:52:03.220Z,28.34
2018-06-04T07:54:32.226Z,28.69
2018-06-04T07:57:01.176Z,28.51
2018-06-04T07:59:30.207Z,28.46
2018-06-04T08:01:59.187Z,28.51
2018-06-04T08:04:28.274Z,28.94
2018-06-04T08:06:57.187Z,28.49
2018-06-04T08:09:26.198Z,28.88
2018-06-04T08:11:55.635Z,29.48
2018-06-04T08:14:28.812Z,29.06
2018-06-04T08:16:58.416Z,28.49
2018-06-04T08:19:27.438Z,29.14
2018-06-04T08:21:56.563Z,29.41
2018-06-04T08:24:25.615Z,29.40
2018-06-04T08:26:54.967Z,29.31
2018-06-04T08:29:24.017Z,30.03
2018-06-04T08:31:53.651Z,30.14
2018-06-04T08:34:23.221Z,30.48
2018-06-04T08:36:52.940Z,30.85
2018-06-04T08:39:22.418Z,31.17
2018-06-04T08:41:51.902Z,30.98
2018-06-04T08:44:20.960Z,30.78
2018-06-04T08:46:49.944Z,30.51
2018-06-04T08:49:18.939Z,30.71
2018-06-04T08:51:47.927Z,30.32
2018-06-04T08:54:16.909Z,29.77
2018-06-04T08:56:45.861Z,30.14
2018-06-04T08:59:14.849Z,30.51
2018-06-04T09:01:43.805Z,30.75
2018-06-04T09:04:12.791Z,30.43
2018-06-04T09:06:41.772Z,30.93
2018-06-04T09:09:11.087Z,30.80
2018-06-04T09:11:40.098Z,31.40
2018-06-04T09:14:09.098Z,31.73
2018-06-04T09:16:38.066Z,31.00
2018-06-04T09:19:07.079Z,31.22
2018-06-04T09:21:36.060Z,31.47
2018-06-04T09:24:05.160Z,30.97
2018-06-04T09:26:34.169Z,31.12
2018-06-04T09:29:03.157Z,31.15
2018-06-04T09:31:32.179Z,31.05
2018-06-04T09:34:01.142Z,31.36
2018-06-04T09:36:30.127Z,31.41
2018-06-04T09:38:59.106Z,30.49
2018-06-04T09:41:28.158Z,31.03
2018-06-04T09:43:57.134Z,30.47
2018-06-04T09:46:26.138Z,31.03
2018-06-04T09:48:55.186Z,30.83
2018-06-04T09:51:24.182Z,31.46
2018-06-04T09:53:53.188Z,31.35
2018-06-04T09:56:22.159Z,31.59
2018-06-04T09:58:51.138Z,31.87
2018-06-04T10:01:20.109Z,31.92
2018-06-04T10:03:49.035Z,31.64
2018-06-04T10:06:18.027Z,31.56
2018-06-04T10:08:46.978Z,30.87
2018-06-04T10:11:16.050Z,31.20
2018-06-04T10:13:44.975Z,31.55
2018-06-04T10:16:13.987Z,32.19
2018-06-04T10:18:43.457Z,31.52
2018-06-04T10:21:12.595Z,31.06
2018-06-04T10:23:41.592Z,31.84
2018-06-04T10:26:10.586Z,32.00
2018-06-04T10:28:40.386Z,31.39
2018-06-04T10:31:09.358Z,31.83
2018-06-04T10:33:38.312Z,31.46
2018-06-04T10:36:07.374Z,32.52
2018-06-04T10:38:36.322Z,31.84
2018-06-04T10:41:05.441Z,31.27
2018-06-04T10:43:34.437Z,31.72
2018-06-04T10:46:03.417Z,31.64
2018-06-04T10:48:32.351Z,32.04
2018-06-04T10:51:01.629Z,31.80
2018-06-04T10:53:30.557Z,31.78
2018-06-04T10:55:59.543Z,32.75
2018-06-04T10:58:28.487Z,33.18
2018-06-04T11:00:57.503Z,33.12
2018-06-04T11:03:26.447Z,33.91
2018-06-04T11:05:55.430Z,33.14
2018-06-04T11:08:24.370Z,33.21
2018-06-04T11:10:53.362Z,33.45
2018-06-04T11:13:22.342Z,33.88
2018-06-04T11:15:51.331Z,34.57
2018-06-04T11:18:20.262Z,35.10
2018-06-04T11:20:49.243Z,33.52
2018-06-04T11:23:18.190Z,34.05
2018-06-04T11:25:47.221Z,34.11
2018-06-04T11:28:16.178Z,33.91
2018-06-04T11:30:45.156Z,34.29
2018-06-04T11:33:14.094Z,34.07
2018-06-04T11:35:43.147Z,34.01
2018-06-04T11:38:12.335Z,34.17
2018-06-04T11:40:41.346Z,34.78
2018-06-04T11:43:10.345Z,34.72
2018-06-04T11:45:39.331Z,34.63
2018-06-04T11:48:09.520Z,34.13
2018-06-04T11:50:38.578Z,33.60
2018-06-04T11:53:07.565Z,33.58
2018-06-04T11:55:36.556Z,33.33
2018-06-04T11:58:05.505Z,32.72
2018-06-04T12:00:34.517Z,31.74
2018-06-04T12:03:03.464Z,32.76
2018-06-04T12:05:32.537Z,33.04
2018-06-04T12:08:01.478Z,33.28
2018-06-04T12:10:30.484Z,33.39
2018-06-04T12:12:59.435Z,33.31
2018-06-04T12:15:28.533Z,33.40
2018-06-04T12:17:57.698Z,33.00
2018-06-04T12:20:26.746Z,33.55
2018-06-04T12:22:55.713Z,33.32
2018-06-04T12:25:24.715Z,33.92
2018-06-04T12:27:53.671Z,33.95
2018-06-04T12:30:22.622Z,33.79
2018-06-04T12:32:51.621Z,33.49
2018-06-04T12:35:20.563Z,33.64
2018-06-04T12:37:49.514Z,34.04
2018-06-04T12:40:18.483Z,32.29
2018-06-04T12:42:47.493Z,31.84
2018-06-04T12:45:16.439Z,33.52
2018-06-04T12:47:45.417Z,34.42
2018-06-04T12:50:14.367Z,35.36
2018-06-04T12:52:46.343Z,35.76
2018-06-04T12:55:15.318Z,35.41
2018-06-04T12:57:44.689Z,34.91
2018-06-04T13:00:13.836Z,34.87
2018-06-04T13:02:42.809Z,34.55
2018-06-04T13:05:11.756Z,33.31
2018-06-04T13:07:40.915Z,33.60
2018-06-04T13:10:09.863Z,32.99
2018-06-04T13:12:38.841Z,33.52
2018-06-04T13:15:07.795Z,34.20
2018-06-04T13:17:36.789Z,34.24
2018-06-04T13:20:05.860Z,34.04
2018-06-04T13:22:34.863Z,34.10
2018-06-04T13:25:03.898Z,33.63
2018-06-04T13:27:32.889Z,32.97
2018-06-04T13:30:01.897Z,33.62
2018-06-04T13:32:30.851Z,33.91
2018-06-04T13:34:59.786Z,34.10
2018-06-04T13:37:28.783Z,35.00
2018-06-04T13:39:57.730Z,35.54
2018-06-04T13:42:26.791Z,35.16
2018-06-04T13:44:55.738Z,35.52
2018-06-04T13:47:25.094Z,35.48
2018-06-04T13:49:54.209Z,34.46
2018-06-04T13:52:23.241Z,34.71
2018-06-04T13:54:52.182Z,33.41
2018-06-04T13:57:21.184Z,34.01
2018-06-04T13:59:50.162Z,34.19
2018-06-04T14:02:19.173Z,35.10
2018-06-04T14:04:48.110Z,34.68
2018-06-04T14:07:17.118Z,34.48
2018-06-04T14:09:46.073Z,34.03
2018-06-04T14:12:15.093Z,34.32
2018-06-04T14:14:44.061Z,34.70
2018-06-04T14:17:13.202Z,34.58
2018-06-04T14:19:42.133Z,34.47
2018-06-04T14:22:11.253Z,33.83
2018-06-04T14:24:40.399Z,33.46
2018-06-04T14:27:09.395Z,34.26
2018-06-04T14:29:38.432Z,33.07
2018-06-04T14:32:07.442Z,34.06
2018-06-04T14:34:36.415Z,33.13
2018-06-04T14:37:05.448Z,33.67
2018-06-04T14:39:34.383Z,34.49
2018-06-04T14:42:03.374Z,34.86
2018-06-04T14:44:32.394Z,33.86
2018-06-04T14:47:01.424Z,33.33
2018-06-04T14:49:30.423Z,32.75
2018-06-04T14:51:59.462Z,33.77
2018-06-04T14:54:28.452Z,33.10
2018-06-04T14:56:57.495Z,34.33
2018-06-04T14:59:26.452Z,34.00
2018-06-04T15:01:55.453Z,33.73
2018-06-04T15:04:24.456Z,33.95
2018-06-04T15:06:53.585Z,35.02
2018-06-04T15:09:22.657Z,34.71
2018-06-04T15:11:51.692Z,34.72
2018-06-04T15:14:20.642Z,34.94
2018-06-04T15:16:49.712Z,35.34
2018-06-04T15:19:18.708Z,35.19
2018-06-04T15:21:47.749Z,33.80
2018-06-04T15:24:16.710Z,35.10
2018-06-04T15:26:45.844Z,35.34
2018-06-04T15:29:14.829Z,35.42
2018-06-04T15:31:43.817Z,35.48
2018-06-04T15:34:12.941Z,35.64
2018-06-04T15:36:42.794Z,35.42
2018-06-04T15:39:11.943Z,35.68
2018-06-04T15:41:40.934Z,35.58
2018-06-04T15:44:10.005Z,35.36
2018-06-04T15:46:39.132Z,35.62
2018-06-04T15:49:08.926Z,35.03
2018-06-04T15:51:38.681Z,34.98
2018-06-04T15:54:08.451Z,34.28
2018-06-04T15:56:38.210Z,34.78
2018-06-04T15:59:08.356Z,35.26
2018-06-04T16:01:38.077Z,35.38
2018-06-04T16:04:07.849Z,35.31
2018-06-04T16:06:37.581Z,35.20
2018-06-04T16:09:08.697Z,35.27
2018-06-04T16:11:38.458Z,34.54
2018-06-04T16:14:08.233Z,35.33
2018-06-04T16:16:37.950Z,35.48
2018-06-04T16:19:07.659Z,35.65
2018-06-04T16:21:37.480Z,35.26
2018-06-04T16:24:07.295Z,34.80
2018-06-04T16:26:37.087Z,34.89
2018-06-04T16:29:06.864Z,34.50
2018-06-04T16:31:36.719Z,34.94
2018-06-04T16:34:06.566Z,34.36
2018-06-04T16:36:36.321Z,33.86
2018-06-04T16:39:09.268Z,34.15
2018-06-04T16:41:39.031Z,34.20
2018-06-04T16:44:08.808Z,34.21
2018-06-04T16:46:38.574Z,34.53
2018-06-04T16:49:08.365Z,34.81
2018-06-04T16:51:38.067Z,34.76
2018-06-04T16:54:07.852Z,34.04
2018-06-04T16:56:37.646Z,34.15
2018-06-04T16:59:07.610Z,33.45
2018-06-04T17:01:37.308Z,33.90
2018-06-04T17:04:07.643Z,33.33
2018-06-04T17:06:37.332Z,33.00
2018-06-04T17:09:08.836Z,33.05
2018-06-04T17:11:38.536Z,33.65
2018-06-04T17:14:08.397Z,33.82
2018-06-04T17:16:38.072Z,33.34
2018-06-04T17:19:07.892Z,32.81
2018-06-04T17:21:37.646Z,32.72
2018-06-04T17:24:07.440Z,32.79
2018-06-04T17:26:37.114Z,32.43
2018-06-04T17:29:06.980Z,32.83
2018-06-04T17:31:36.747Z,33.23
2018-06-04T17:34:06.472Z,33.42
2018-06-04T17:36:36.178Z,33.55
2018-06-04T17:39:08.414Z,33.34
2018-06-04T17:41:38.342Z,33.19
2018-06-04T17:44:08.096Z,33.24
2018-06-04T17:46:37.826Z,33.01
2018-06-04T17:49:07.648Z,33.01
2018-06-04T17:51:37.317Z,33.06
2018-06-04T17:54:07.095Z,33.08
2018-06-04T17:56:36.766Z,32.89
2018-06-04T17:59:06.844Z,32.32
2018-06-04T18:01:36.482Z,32.69
2018-06-04T18:04:06.352Z,32.59
2018-06-04T18:06:36.062Z,31.56
2018-06-04T18:09:08.907Z,31.43
2018-06-04T18:11:38.715Z,31.37
2018-06-04T18:14:08.461Z,31.28
2018-06-04T18:16:38.152Z,31.04
2018-06-04T18:19:08.035Z,30.80
2018-06-04T18:21:36.962Z,31.31
2018-06-04T18:24:05.958Z,31.48
2018-06-04T18:26:34.890Z,31.51
2018-06-04T18:29:03.921Z,31.50
2018-06-04T18:31:32.852Z,31.56
2018-06-04T18:34:01.823Z,31.47
2018-06-04T18:36:30.803Z,31.30
2018-06-04T18:38:59.792Z,31.44
2018-06-04T18:41:28.734Z,31.37
2018-06-04T18:43:57.742Z,31.05
2018-06-04T18:46:28.192Z,30.81
2018-06-04T18:48:57.197Z,30.53
2018-06-04T18:51:26.126Z,30.40
2018-06-04T18:53:55.106Z,30.33
2018-06-04T18:56:24.042Z,30.13
2018-06-04T18:58:53.017Z,30.10
2018-06-04T19:01:21.952Z,30.12
2018-06-04T19:03:50.931Z,30.00
2018-06-04T19:06:19.894Z,29.84
2018-06-04T19:08:48.910Z,29.89
2018-06-04T19:11:18.771Z,29.83
2018-06-04T19:13:48.585Z,29.79
2018-06-04T19:16:18.420Z,29.68
2018-06-04T19:18:48.221Z,29.47
2018-06-04T19:21:17.925Z,29.49
2018-06-04T19:23:47.685Z,29.48
2018-06-04T19:26:17.391Z,29.48
2018-06-04T19:28:47.337Z,29.43
2018-06-04T19:31:17.018Z,29.31
2018-06-04T19:33:46.757Z,29.28
2018-06-04T19:36:15.701Z,29.26
2018-06-04T19:38:44.677Z,28.77
2018-06-04T19:41:13.626Z,28.44
2018-06-04T19:43:42.634Z,28.56
2018-06-04T19:46:11.562Z,28.64
2018-06-04T19:48:40.526Z,28.56
2018-06-04T19:51:09.462Z,28.52
2018-06-04T19:53:38.439Z,28.35
2018-06-04T19:56:07.434Z,28.41
2018-06-04T19:58:36.411Z,28.33
2018-06-04T20:01:05.397Z,28.20
2018-06-04T20:03:34.364Z,28.12
2018-06-04T20:06:03.321Z,28.16
2018-06-04T20:08:32.263Z,28.18
2018-06-04T20:11:01.226Z,27.63
2018-06-04T20:13:30.194Z,27.84
2018-06-04T20:15:59.166Z,27.83
2018-06-04T20:18:28.094Z,27.93
2018-06-04T20:20:57.396Z,28.02
2018-06-04T20:23:26.309Z,27.91
2018-06-04T20:25:56.003Z,28.05
2018-06-04T20:28:24.917Z,28.03
2018-06-04T20:30:53.936Z,27.98
2018-06-04T20:33:22.880Z,27.82
2018-06-04T20:35:51.851Z,27.88
2018-06-04T20:38:20.883Z,27.72
2018-06-04T20:40:49.853Z,27.85
2018-06-04T20:43:18.769Z,27.81
2018-06-04T20:45:48.561Z,27.96
2018-06-04T20:48:18.271Z,27.90
2018-06-04T20:50:47.983Z,27.93
2018-06-04T20:53:17.652Z,28.04
2018-06-04T20:55:47.380Z,27.84
2018-06-04T20:58:18.071Z,27.73
2018-06-04T21:00:47.055Z,27.65
2018-06-04T21:03:16.012Z,27.53
2018-06-04T21:05:45.425Z,27.71
2018-06-04T21:08:14.394Z,27.73
2018-06-04T21:10:43.956Z,27.62
2018-06-04T21:13:12.997Z,27.53
2018-06-04T21:15:41.988Z,27.02
2018-06-04T21:18:11.155Z,26.74
2018-06-04T21:20:40.464Z,26.51
2018-06-04T21:23:09.524Z,26.53
2018-06-04T21:25:38.582Z,26.51
2018-06-04T21:28:07.588Z,26.46
2018-06-04T21:30:36.582Z,26.52
2018-06-04T21:33:05.534Z,26.39
2018-06-04T21:35:34.501Z,26.30
2018-06-04T21:38:03.445Z,26.05
2018-06-04T21:40:32.441Z,25.73
2018-06-04T21:43:01.382Z,26.28
2018-06-04T21:45:30.375Z,26.06
2018-06-04T21:47:59.353Z,25.67
2018-06-04T21:50:28.371Z,25.46
2018-06-04T21:52:57.338Z,25.97
2018-06-04T21:55:26.367Z,26.14
2018-06-04T21:57:55.338Z,25.99
2018-06-04T22:00:24.322Z,25.95
2018-06-04T22:02:53.253Z,25.89
2018-06-04T22:05:22.253Z,25.88
2018-06-04T22:07:51.215Z,25.94
2018-06-04T22:10:20.222Z,26.02
2018-06-04T22:12:49.154Z,26.13
2018-06-04T22:15:18.177Z,25.94
2018-06-04T22:17:47.132Z,25.64
2018-06-04T22:20:16.106Z,25.96
2018-06-04T22:22:45.067Z,26.14
2018-06-04T22:25:14.096Z,25.94
2018-06-04T22:27:43.094Z,26.00
2018-06-04T22:30:12.061Z,26.04
2018-06-04T22:32:40.998Z,25.89
2018-06-04T22:35:09.971Z,25.87
2018-06-04T22:37:38.924Z,25.89
2018-06-04T22:40:07.915Z,25.90
2018-06-04T22:42:36.888Z,25.87
2018-06-04T22:45:05.866Z,25.67
2018-06-04T22:47:34.790Z,25.68
2018-06-04T22:50:03.780Z,25.76
2018-06-04T22:52:32.717Z,25.77
2018-06-04T22:55:01.695Z,25.50
2018-06-04T22:57:30.624Z,25.40
2018-06-04T22:59:59.643Z,25.49
2018-06-04T23:02:28.594Z,24.98
2018-06-04T23:04:57.535Z,24.99
2018-06-04T23:07:26.525Z,24.91
2018-06-04T23:09:55.562Z,24.91
2018-06-04T23:12:24.537Z,24.66
2018-06-04T23:14:53.466Z,24.58
2018-06-04T23:17:22.462Z,24.98
2018-06-04T23:19:51.390Z,24.78
2018-06-04T23:22:20.353Z,24.63
2018-06-04T23:24:49.311Z,24.70
2018-06-04T23:27:18.292Z,24.39
2018-06-04T23:29:47.263Z,24.61
2018-06-04T23:32:16.265Z,24.42
2018-06-04T23:34:45.203Z,24.40
2018-06-04T23:37:14.163Z,24.55
2018-06-04T23:39:43.093Z,24.53
2018-06-04T23:42:12.086Z,24.32
2018-06-04T23:44:41.020Z,24.24
2018-06-04T23:47:10.017Z,24.14
2018-06-04T23:49:38.974Z,24.48
2018-06-04T23:52:07.975Z,24.28
2018-06-04T23:54:36.902Z,24.53
2018-06-04T23:57:05.909Z,24.25
2018-06-04T23:59:34.821Z,24.09
